createdAt,value
2017-11-16T00:00:29.046Z,79.10
2017-11-16T00:02:56.665Z,79.10
2017-11-16T00:05:25.158Z,79.20
2017-11-16T00:07:52.973Z,79.10
2017-11-16T00:10:20.752Z,79.00
2017-11-16T00:12:48.405Z,79.10
2017-11-16T00:15:16.028Z,79.10
2017-11-16T00:17:43.677Z,79.00
2017-11-16T00:20:12.069Z,79.10
2017-11-16T00:22:39.746Z,79.90
2017-11-16T00:25:08.380Z,80.00
2017-11-16T00:27:35.996Z,79.20
2017-11-16T00:30:03.686Z,79.20
2017-11-16T00:32:31.319Z,79.30
2017-11-16T00:34:59.136Z,79.20
2017-11-16T00:37:26.772Z,79.20
2017-11-16T00:39:54.406Z,79.30
2017-11-16T00:42:22.146Z,79.20
2017-11-16T00:44:50.631Z,79.20
2017-11-16T00:47:18.337Z,79.10
2017-11-16T00:49:46.103Z,79.10
2017-11-16T00:52:13.723Z,79.20
2017-11-16T00:54:41.371Z,79.20
2017-11-16T00:57:09.754Z,79.20
2017-11-16T00:59:40.505Z,79.20
2017-11-16T01:02:08.117Z,79.10
2017-11-16T01:04:35.748Z,79.20
2017-11-16T01:07:03.408Z,79.20
2017-11-16T01:09:31.028Z,79.20
2017-11-16T01:11:59.481Z,79.20
2017-11-16T01:14:27.118Z,79.10
2017-11-16T01:16:54.737Z,79.20
2017-11-16T01:19:23.167Z,79.10
2017-11-16T01:21:50.780Z,78.90
2017-11-16T01:24:19.196Z,79.20
2017-11-16T01:26:46.821Z,79.10
2017-11-16T01:29:15.356Z,79.10
2017-11-16T01:31:42.978Z,78.90
2017-11-16T01:34:10.621Z,79.10
2017-11-16T01:36:39.044Z,79.20
2017-11-16T01:39:06.749Z,79.90
2017-11-16T01:41:34.425Z,79.20
2017-11-16T01:44:02.811Z,79.10
2017-11-16T01:46:31.208Z,79.20
2017-11-16T01:48:58.863Z,79.00
2017-11-16T01:51:27.253Z,79.00
2017-11-16T01:53:54.905Z,79.00
2017-11-16T01:56:23.361Z,79.10
2017-11-16T01:58:51.020Z,78.90
2017-11-16T02:01:18.772Z,79.10
2017-11-16T02:03:46.389Z,79.00
2017-11-16T02:06:14.059Z,79.00
2017-11-16T02:08:41.688Z,78.90
2017-11-16T02:11:10.241Z,78.80
2017-11-16T02:13:37.893Z,78.80
2017-11-16T02:16:05.535Z,78.90
2017-11-16T02:18:33.164Z,78.80
2017-11-16T02:21:01.603Z,78.70
2017-11-16T02:23:29.262Z,78.70
2017-11-16T02:25:56.966Z,78.90
2017-11-16T02:28:25.398Z,78.90
2017-11-16T02:30:53.205Z,78.80
2017-11-16T02:33:21.628Z,78.80
2017-11-16T02:35:49.317Z,78.80
2017-11-16T02:38:16.972Z,78.80
2017-11-16T02:40:44.732Z,78.70
2017-11-16T02:43:12.399Z,78.70
2017-11-16T02:45:40.065Z,79.50
2017-11-16T02:48:07.762Z,78.70
2017-11-16T02:50:36.184Z,78.80
2017-11-16T02:53:03.968Z,78.70
2017-11-16T02:55:31.655Z,78.70
2017-11-16T02:57:59.348Z,78.70
2017-11-16T03:00:27.780Z,78.70
2017-11-16T03:02:55.648Z,78.60
2017-11-16T03:05:23.284Z,78.70
2017-11-16T03:07:50.932Z,78.70
2017-11-16T03:10:18.549Z,78.70
2017-11-16T03:12:46.982Z,78.80
2017-11-16T03:15:14.673Z,78.70
2017-11-16T03:17:42.444Z,78.70
2017-11-16T03:20:10.091Z,78.70
2017-11-16T03:22:37.879Z,78.70
2017-11-16T03:25:05.508Z,78.60
2017-11-16T03:27:34.016Z,78.60
2017-11-16T03:30:01.663Z,78.50
2017-11-16T03:32:29.314Z,78.60
2017-11-16T03:34:56.933Z,78.60
2017-11-16T03:37:25.380Z,78.70
2017-11-16T03:39:53.008Z,78.60
2017-11-16T03:42:20.676Z,78.50
2017-11-16T03:44:48.324Z,78.50
2017-11-16T03:47:16.029Z,78.50
2017-11-16T03:49:43.659Z,78.50
2017-11-16T03:52:11.443Z,78.50
2017-11-16T03:54:39.061Z,78.50
2017-11-16T03:57:07.484Z,78.50
2017-11-16T03:59:35.113Z,78.30
2017-11-16T04:02:02.735Z,78.30
2017-11-16T04:04:30.389Z,78.50
2017-11-16T04:06:58.016Z,78.50
2017-11-16T04:09:25.634Z,78.50
2017-11-16T04:11:54.101Z,79.30
2017-11-16T04:14:22.538Z,78.30
2017-11-16T04:16:50.324Z,78.30
2017-11-16T04:19:18.084Z,78.40
2017-11-16T04:21:45.757Z,78.30
2017-11-16T04:24:13.422Z,78.30
2017-11-16T04:26:41.067Z,78.40
2017-11-16T04:29:08.749Z,78.30
2017-11-16T04:31:36.414Z,78.30
2017-11-16T04:34:04.073Z,78.30
2017-11-16T04:36:31.736Z,78.30
2017-11-16T04:38:59.408Z,78.20
2017-11-16T04:41:27.805Z,78.20
2017-11-16T04:43:56.220Z,78.30
2017-11-16T04:46:23.848Z,78.30
2017-11-16T04:48:52.265Z,78.10
2017-11-16T04:51:19.954Z,78.10
2017-11-16T04:53:47.616Z,78.10
2017-11-16T04:56:15.268Z,78.10
2017-11-16T04:58:42.882Z,78.10
2017-11-16T05:01:11.329Z,78.00
2017-11-16T05:03:38.951Z,78.00
2017-11-16T05:06:06.850Z,78.10
2017-11-16T05:08:34.472Z,78.10
2017-11-16T05:11:02.147Z,78.10
2017-11-16T05:13:29.787Z,78.00
2017-11-16T05:15:58.522Z,78.10
2017-11-16T05:18:26.332Z,78.00
2017-11-16T05:20:55.686Z,78.00
2017-11-16T05:23:24.039Z,78.00
2017-11-16T05:25:52.639Z,78.00
2017-11-16T05:28:20.417Z,78.00
2017-11-16T05:30:48.114Z,78.00
2017-11-16T05:33:16.374Z,78.00
2017-11-16T05:35:44.223Z,78.00
2017-11-16T05:38:11.938Z,78.00
2017-11-16T05:40:40.384Z,78.00
2017-11-16T05:43:08.460Z,77.80
2017-11-16T05:45:36.125Z,78.00
2017-11-16T05:48:03.774Z,78.00
2017-11-16T05:50:31.489Z,78.00
2017-11-16T05:52:59.302Z,77.80
2017-11-16T05:55:27.001Z,78.00
2017-11-16T05:57:55.647Z,78.00
2017-11-16T06:00:23.421Z,77.90
2017-11-16T06:02:52.296Z,77.80
2017-11-16T06:05:20.055Z,77.90
2017-11-16T06:07:47.683Z,78.00
2017-11-16T06:10:15.486Z,77.90
2017-11-16T06:12:43.133Z,78.00
2017-11-16T06:15:10.806Z,77.90
2017-11-16T06:17:39.670Z,77.90
2017-11-16T06:20:07.334Z,77.90
2017-11-16T06:22:34.976Z,77.80
2017-11-16T06:25:03.414Z,77.90
2017-11-16T06:27:31.046Z,77.80
2017-11-16T06:29:58.714Z,77.90
2017-11-16T06:32:26.339Z,77.90
2017-11-16T06:34:54.899Z,77.90
2017-11-16T06:37:22.559Z,77.80
2017-11-16T06:39:50.329Z,77.80
2017-11-16T06:42:17.991Z,77.90
2017-11-16T06:44:45.643Z,77.90
2017-11-16T06:47:13.319Z,78.00
2017-11-16T06:49:40.956Z,77.90
2017-11-16T06:52:08.624Z,77.90
2017-11-16T06:54:36.305Z,77.80
2017-11-16T06:57:04.406Z,77.80
2017-11-16T06:59:32.922Z,77.80
2017-11-16T07:02:00.552Z,77.80
2017-11-16T07:04:28.975Z,77.70
2017-11-16T07:06:56.601Z,77.70
2017-11-16T07:09:24.216Z,77.80
2017-11-16T07:11:51.873Z,77.80
2017-11-16T07:14:19.493Z,77.70
2017-11-16T07:16:47.185Z,77.80
2017-11-16T07:19:14.809Z,77.70
2017-11-16T07:21:42.513Z,77.80
2017-11-16T07:24:10.152Z,77.70
2017-11-16T07:26:37.804Z,77.70
2017-11-16T07:29:05.462Z,77.60
2017-11-16T07:31:33.095Z,77.90
2017-11-16T07:34:00.747Z,77.80
2017-11-16T07:36:28.389Z,77.70
2017-11-16T07:38:56.059Z,77.70
2017-11-16T07:41:23.717Z,77.70
2017-11-16T07:43:51.483Z,77.80
2017-11-16T07:46:19.150Z,77.80
2017-11-16T07:48:46.811Z,77.70
2017-11-16T07:51:14.468Z,77.80
2017-11-16T07:53:42.141Z,77.70
2017-11-16T07:56:09.883Z,77.80
2017-11-16T07:58:37.595Z,77.80
2017-11-16T08:01:06.010Z,77.70
2017-11-16T08:03:33.646Z,77.70
2017-11-16T08:06:02.072Z,77.70
2017-11-16T08:08:29.850Z,77.60
2017-11-16T08:10:57.469Z,77.70
2017-11-16T08:13:25.121Z,77.50
2017-11-16T08:15:52.764Z,77.60
2017-11-16T08:18:21.146Z,77.80
2017-11-16T08:20:49.698Z,77.90
2017-11-16T08:23:17.336Z,77.80
2017-11-16T08:25:44.979Z,77.90
2017-11-16T08:28:12.599Z,77.90
2017-11-16T08:30:40.263Z,77.90
2017-11-16T08:33:08.684Z,77.80
2017-11-16T08:35:36.373Z,77.70
2017-11-16T08:38:04.034Z,77.90
2017-11-16T08:42:53.925Z,77.90
2017-11-16T08:45:21.530Z,77.80
2017-11-16T08:47:50.824Z,77.90
2017-11-16T08:50:18.434Z,77.80
2017-11-16T08:52:46.094Z,77.70
2017-11-16T08:55:13.781Z,77.70
2017-11-16T08:57:41.441Z,77.90
2017-11-16T09:00:09.055Z,77.80
2017-11-16T09:02:37.439Z,78.10
2017-11-16T09:05:05.862Z,77.70
2017-11-16T09:07:33.458Z,77.70
2017-11-16T09:10:01.132Z,77.70
2017-11-16T09:12:29.522Z,78.10
2017-11-16T09:14:57.941Z,78.00
2017-11-16T09:17:25.562Z,77.90
2017-11-16T09:19:53.980Z,77.90
2017-11-16T09:22:21.606Z,77.90
2017-11-16T09:24:49.250Z,78.10
2017-11-16T09:27:17.638Z,77.90
2017-11-16T09:29:46.024Z,78.00
2017-11-16T09:32:13.634Z,77.90
2017-11-16T09:34:41.287Z,78.00
2017-11-16T09:37:08.878Z,78.00
2017-11-16T09:39:36.512Z,78.00
2017-11-16T09:42:04.135Z,77.90
2017-11-16T09:44:31.763Z,77.90
2017-11-16T09:46:59.398Z,78.00
2017-11-16T09:49:27.021Z,78.00
2017-11-16T09:51:54.626Z,77.70
2017-11-16T09:54:22.262Z,77.60
2017-11-16T09:56:49.862Z,77.60
2017-11-16T09:59:17.516Z,77.70
2017-11-16T10:01:45.126Z,77.60
2017-11-16T10:04:12.729Z,77.60
2017-11-16T10:06:40.363Z,77.80
2017-11-16T10:09:07.993Z,77.90
2017-11-16T10:11:36.386Z,78.00
2017-11-16T10:14:03.995Z,77.80
2017-11-16T10:16:31.619Z,77.80
2017-11-16T10:18:59.218Z,77.60
2017-11-16T10:21:26.862Z,77.70
2017-11-16T10:23:54.463Z,77.60
2017-11-16T10:26:22.110Z,77.60
2017-11-16T10:28:49.729Z,77.60
2017-11-16T10:31:17.355Z,77.60
2017-11-16T10:33:45.723Z,77.60
2017-11-16T10:36:13.343Z,77.50
2017-11-16T10:38:40.953Z,78.90
2017-11-16T10:41:09.347Z,77.70
2017-11-16T10:43:36.970Z,77.50
2017-11-16T10:46:04.589Z,77.60
2017-11-16T10:48:32.211Z,77.60
2017-11-16T10:51:00.607Z,77.70
2017-11-16T10:53:28.209Z,77.60
2017-11-16T10:55:55.839Z,77.70
2017-11-16T10:58:23.435Z,77.60
2017-11-16T11:00:51.094Z,77.70
2017-11-16T11:03:18.695Z,77.50
2017-11-16T11:05:47.098Z,77.60
2017-11-16T11:08:14.713Z,77.50
2017-11-16T11:10:42.322Z,77.50
2017-11-16T11:13:09.966Z,77.30
2017-11-16T11:15:38.318Z,77.40
2017-11-16T11:18:05.956Z,77.30
2017-11-16T11:20:33.551Z,77.30
2017-11-16T11:23:01.280Z,77.40
2017-11-16T11:25:28.875Z,77.50
2017-11-16T11:27:56.499Z,77.30
2017-11-16T11:30:24.101Z,77.70
2017-11-16T11:32:52.496Z,77.20
2017-11-16T11:35:20.851Z,77.50
2017-11-16T11:37:48.488Z,77.40
2017-11-16T11:40:16.084Z,77.30
2017-11-16T11:42:44.494Z,77.20
2017-11-16T11:45:12.091Z,77.20
2017-11-16T11:47:39.685Z,77.10
2017-11-16T11:50:08.072Z,77.20
2017-11-16T11:52:36.438Z,77.10
2017-11-16T11:55:04.831Z,77.10
2017-11-16T11:57:32.436Z,77.00
2017-11-16T12:00:00.066Z,77.00
2017-11-16T12:02:27.675Z,77.10
2017-11-16T12:04:55.314Z,77.10
2017-11-16T12:07:23.686Z,76.70
2017-11-16T12:09:51.281Z,76.70
2017-11-16T12:12:18.906Z,77.00
2017-11-16T12:14:46.497Z,76.70
2017-11-16T12:17:14.146Z,77.00
2017-11-16T12:19:41.762Z,76.90
2017-11-16T12:22:09.415Z,77.00
2017-11-16T12:24:37.777Z,76.90
2017-11-16T12:27:05.390Z,76.90
2017-11-16T12:29:33.023Z,76.90
2017-11-16T12:32:00.655Z,77.00
2017-11-16T12:34:28.298Z,77.80
2017-11-16T12:36:55.916Z,76.90
2017-11-16T12:39:23.566Z,76.70
2017-11-16T12:41:51.179Z,76.90
2017-11-16T12:44:18.831Z,76.70
2017-11-16T12:46:46.462Z,76.40
2017-11-16T12:49:14.072Z,76.70
2017-11-16T12:51:41.740Z,76.30
2017-11-16T12:54:09.342Z,76.70
2017-11-16T12:56:36.981Z,76.40
2017-11-16T12:59:05.365Z,76.10
2017-11-16T13:01:33.791Z,76.10
2017-11-16T13:04:01.406Z,76.10
2017-11-16T13:06:29.779Z,76.00
2017-11-16T13:08:58.166Z,75.90
2017-11-16T13:11:26.530Z,75.80
2017-11-16T13:13:54.158Z,75.70
2017-11-16T13:16:21.757Z,75.80
2017-11-16T13:18:50.155Z,75.90
2017-11-16T13:21:17.762Z,75.80
2017-11-16T13:23:45.402Z,75.60
2017-11-16T13:26:13.010Z,75.70
2017-11-16T13:28:40.609Z,75.50
2017-11-16T13:31:08.520Z,75.80
2017-11-16T13:33:36.126Z,75.70
2017-11-16T13:36:03.766Z,75.70
2017-11-16T13:38:32.134Z,75.70
2017-11-16T13:40:59.770Z,75.50
2017-11-16T13:43:27.381Z,75.80
2017-11-16T13:45:55.773Z,75.60
2017-11-16T13:48:23.366Z,76.40
2017-11-16T13:50:51.002Z,75.60
2017-11-16T13:53:18.611Z,75.70
2017-11-16T13:55:46.211Z,75.80
2017-11-16T13:58:13.831Z,75.70
2017-11-16T14:00:41.434Z,75.60
2017-11-16T14:03:09.062Z,75.50
2017-11-16T14:05:36.683Z,75.50
2017-11-16T14:08:04.282Z,75.50
2017-11-16T14:10:31.901Z,75.50
2017-11-16T14:12:59.504Z,75.50
2017-11-16T14:15:27.937Z,75.40
2017-11-16T14:17:55.534Z,76.30
2017-11-16T14:20:23.923Z,75.50
2017-11-16T14:22:51.538Z,75.60
2017-11-16T14:25:19.173Z,75.70
2017-11-16T14:27:47.534Z,75.70
2017-11-16T14:30:15.899Z,75.70
2017-11-16T14:32:43.517Z,75.60
2017-11-16T14:35:11.118Z,75.70
2017-11-16T14:37:38.752Z,75.80
2017-11-16T14:40:06.363Z,75.70
2017-11-16T14:42:34.759Z,75.50
2017-11-16T14:45:02.361Z,75.40
2017-11-16T14:47:29.986Z,75.50
2017-11-16T14:49:57.614Z,75.30
2017-11-16T14:52:26.014Z,75.30
2017-11-16T14:54:54.383Z,75.40
2017-11-16T14:57:22.773Z,75.40
2017-11-16T14:59:50.373Z,75.30
2017-11-16T15:02:18.002Z,75.30
2017-11-16T15:04:45.598Z,75.30
2017-11-16T15:07:13.234Z,75.30
2017-11-16T15:09:40.854Z,75.20
2017-11-16T15:12:09.227Z,75.30
2017-11-16T15:14:36.855Z,75.20
2017-11-16T15:17:04.974Z,75.20
2017-11-16T15:19:33.377Z,75.20
2017-11-16T15:22:00.992Z,75.10
2017-11-16T15:24:28.639Z,75.10
2017-11-16T15:26:56.236Z,75.20
2017-11-16T15:29:24.606Z,75.20
2017-11-16T15:31:53.001Z,76.10
2017-11-16T15:34:21.373Z,75.20
2017-11-16T15:36:49.771Z,75.10
2017-11-16T15:39:17.369Z,75.10
2017-11-16T15:41:44.986Z,75.00
2017-11-16T15:44:12.588Z,75.30
2017-11-16T15:46:40.227Z,74.90
2017-11-16T15:49:07.830Z,75.10
2017-11-16T15:51:35.427Z,75.40
2017-11-16T15:54:03.816Z,75.50
2017-11-16T15:56:31.406Z,75.40
2017-11-16T15:58:59.039Z,75.20
2017-11-16T16:01:26.651Z,75.20
2017-11-16T16:03:55.792Z,75.20
2017-11-16T16:06:23.387Z,75.20
2017-11-16T16:08:51.084Z,75.20
2017-11-16T16:11:18.699Z,75.20
2017-11-16T16:13:46.327Z,75.40
2017-11-16T16:16:14.712Z,75.30
2017-11-16T16:18:42.337Z,75.20
2017-11-16T16:21:09.974Z,75.20
2017-11-16T16:23:37.613Z,75.40
2017-11-16T16:26:05.211Z,75.50
2017-11-16T16:28:32.847Z,75.20
2017-11-16T16:31:00.439Z,75.40
2017-11-16T16:33:29.597Z,75.30
2017-11-16T16:35:57.198Z,75.20
2017-11-16T16:38:26.310Z,75.50
2017-11-16T16:40:54.735Z,75.50
2017-11-16T16:43:22.357Z,75.40
2017-11-16T16:45:50.752Z,75.50
2017-11-16T16:48:18.472Z,75.50
2017-11-16T16:50:46.108Z,75.50
2017-11-16T16:53:13.724Z,75.50
2017-11-16T16:55:42.126Z,75.50
2017-11-16T16:58:09.813Z,75.50
2017-11-16T17:00:37.785Z,76.40
2017-11-16T17:03:05.386Z,75.50
2017-11-16T17:05:33.926Z,74.90
2017-11-16T17:08:01.522Z,74.80
2017-11-16T17:10:29.150Z,75.10
2017-11-16T17:12:56.758Z,75.10
2017-11-16T17:15:25.165Z,75.00
2017-11-16T17:17:52.757Z,74.90
2017-11-16T17:20:20.381Z,74.80
2017-11-16T17:22:48.005Z,75.00
2017-11-16T17:25:15.647Z,75.20
2017-11-16T17:27:43.290Z,75.70
2017-11-16T17:30:12.198Z,74.80
2017-11-16T17:32:39.806Z,74.70
2017-11-16T17:35:07.434Z,74.80
2017-11-16T17:37:35.054Z,74.50
2017-11-16T17:40:02.670Z,74.80
2017-11-16T17:42:31.069Z,74.70
2017-11-16T17:44:58.703Z,74.60
2017-11-16T17:47:26.350Z,74.60
2017-11-16T17:49:54.722Z,74.50
2017-11-16T17:52:22.355Z,74.50
2017-11-16T17:54:49.966Z,74.50
2017-11-16T17:57:17.598Z,74.40
2017-11-16T17:59:45.211Z,74.10
2017-11-16T18:02:13.624Z,74.40
2017-11-16T18:04:41.223Z,74.30
2017-11-16T18:07:08.850Z,74.50
2017-11-16T18:09:36.461Z,74.40
2017-11-16T18:12:04.864Z,74.20
2017-11-16T18:14:32.478Z,74.10
2017-11-16T18:17:00.879Z,74.40
2017-11-16T18:19:29.244Z,74.40
2017-11-16T18:21:56.891Z,74.30
2017-11-16T18:24:24.488Z,74.40
2017-11-16T18:26:52.910Z,74.50
2017-11-16T18:29:20.530Z,74.40
2017-11-16T18:31:48.939Z,74.40
2017-11-16T18:34:16.545Z,74.30
2017-11-16T18:36:44.148Z,74.50
2017-11-16T18:39:11.779Z,74.40
2017-11-16T18:41:40.142Z,74.40
2017-11-16T18:44:07.779Z,74.20
2017-11-16T18:46:35.383Z,74.30
2017-11-16T18:49:03.763Z,74.20
2017-11-16T18:51:32.150Z,74.30
2017-11-16T18:54:00.532Z,74.50
2017-11-16T18:56:28.932Z,74.50
2017-11-16T18:58:56.538Z,74.50
2017-11-16T19:01:24.939Z,74.50
2017-11-16T19:03:53.306Z,74.10
2017-11-16T19:06:20.935Z,74.00
2017-11-16T19:08:48.536Z,74.90
2017-11-16T19:11:16.935Z,74.40
2017-11-16T19:13:44.534Z,74.40
2017-11-16T19:16:12.163Z,74.30
2017-11-16T19:18:39.767Z,74.20
2017-11-16T19:21:07.405Z,74.00
2017-11-16T19:23:35.002Z,74.20
2017-11-16T19:26:02.662Z,74.20
2017-11-16T19:28:30.272Z,74.60
2017-11-16T19:30:57.875Z,74.30
2017-11-16T19:33:25.513Z,74.30
2017-11-16T19:35:53.118Z,74.10
2017-11-16T19:38:20.742Z,74.20
2017-11-16T19:40:48.346Z,74.30
2017-11-16T19:43:16.713Z,74.40
2017-11-16T19:45:44.345Z,74.20
2017-11-16T19:48:11.979Z,73.60
2017-11-16T19:50:39.581Z,74.40
2017-11-16T19:53:07.205Z,74.40
2017-11-16T19:55:34.819Z,74.40
2017-11-16T19:58:02.442Z,74.40
2017-11-16T20:00:30.047Z,75.10
2017-11-16T20:02:58.444Z,74.70
2017-11-16T20:05:26.058Z,74.50
2017-11-16T20:07:53.688Z,74.70
2017-11-16T20:10:21.775Z,74.70
2017-11-16T20:12:49.403Z,74.90
2017-11-16T20:15:17.008Z,74.70
2017-11-16T20:17:44.605Z,74.50
2017-11-16T20:20:13.005Z,74.50
2017-11-16T20:22:40.610Z,74.30
2017-11-16T20:25:08.234Z,74.70
2017-11-16T20:27:35.846Z,74.70
2017-11-16T20:30:03.496Z,74.70
2017-11-16T20:32:31.113Z,74.90
2017-11-16T20:34:58.749Z,74.80
2017-11-16T20:40:39.682Z,74.70
2017-11-16T20:43:19.017Z,74.90
2017-11-16T20:45:52.392Z,75.00
2017-11-16T20:48:25.781Z,74.90
2017-11-16T20:50:59.817Z,75.20
2017-11-16T20:53:28.210Z,75.20
2017-11-16T20:55:55.842Z,75.50
2017-11-16T20:58:23.442Z,75.40
2017-11-16T21:00:51.094Z,75.40
2017-11-16T21:03:18.710Z,75.40
2017-11-16T21:05:47.098Z,75.20
2017-11-16T21:08:14.710Z,75.20
2017-11-16T21:10:44.169Z,76.50
2017-11-16T21:13:13.692Z,75.60
2017-11-16T21:15:41.435Z,75.70
2017-11-16T21:18:09.061Z,75.70
2017-11-16T21:20:36.674Z,75.60
2017-11-16T21:23:04.303Z,75.60
2017-11-16T21:25:32.710Z,75.70
2017-11-16T21:28:00.327Z,75.70
2017-11-16T21:30:29.431Z,75.80
2017-11-16T21:32:57.065Z,75.80
2017-11-16T21:35:24.719Z,75.80
2017-11-16T21:37:52.326Z,76.00
2017-11-16T21:40:20.723Z,75.90
2017-11-16T21:42:48.338Z,75.90
2017-11-16T21:45:15.990Z,76.00
2017-11-16T21:47:43.599Z,76.10
2017-11-16T21:50:11.223Z,76.20
2017-11-16T21:52:38.817Z,76.20
2017-11-16T21:55:07.215Z,76.10
2017-11-16T21:57:34.833Z,76.00
2017-11-16T22:00:02.464Z,76.30
2017-11-16T22:02:30.069Z,76.40
2017-11-16T22:04:58.824Z,76.40
2017-11-16T22:07:26.687Z,76.20
2017-11-16T22:09:54.653Z,76.40
2017-11-16T22:12:22.523Z,76.40
2017-11-16T22:14:50.388Z,76.40
2017-11-16T22:17:18.255Z,76.20
2017-11-16T22:19:46.126Z,76.50
2017-11-16T22:22:13.993Z,76.50
2017-11-16T22:24:41.862Z,76.40
2017-11-16T22:27:09.470Z,76.30
2017-11-16T22:29:37.164Z,76.40
2017-11-16T22:32:04.776Z,76.40
2017-11-16T22:34:33.186Z,76.40
2017-11-16T22:37:00.781Z,76.30
2017-11-16T22:39:28.378Z,76.40
2017-11-16T22:41:56.770Z,76.40
2017-11-16T22:44:24.380Z,76.40
2017-11-16T22:46:52.021Z,76.50
2017-11-16T22:49:19.619Z,76.50
2017-11-16T22:51:47.213Z,76.50
2017-11-16T22:54:14.866Z,76.60
2017-11-16T22:56:43.226Z,76.90
2017-11-16T22:59:10.866Z,76.90
2017-11-16T23:01:38.496Z,77.00
2017-11-16T23:04:06.100Z,77.00
2017-11-16T23:06:33.733Z,76.90
2017-11-16T23:09:01.332Z,77.00
2017-11-16T23:11:28.970Z,77.00
2017-11-16T23:13:56.564Z,77.00
2017-11-16T23:16:24.934Z,77.00
2017-11-16T23:18:53.334Z,77.10
2017-11-16T23:21:20.939Z,76.90
2017-11-16T23:23:48.583Z,77.10
2017-11-16T23:26:16.186Z,77.20
2017-11-16T23:28:45.286Z,77.20
2017-11-16T23:31:12.915Z,77.20
2017-11-16T23:33:40.519Z,77.10
2017-11-16T23:36:08.925Z,77.40
2017-11-16T23:38:36.526Z,77.40
2017-11-16T23:41:04.121Z,77.30
2017-11-16T23:43:32.512Z,77.30
2017-11-16T23:46:00.113Z,77.30
2017-11-16T23:48:27.741Z,77.80
2017-11-16T23:50:55.338Z,78.10
2017-11-16T23:53:22.930Z,77.70
2017-11-16T23:55:50.566Z,78.20
2017-11-16T23:58:18.166Z,77.30
